sensor_id;sensor_type;location;lat;lon;timestamp;temperature;humidity
21635;DHT22;10979;48.306;9.830;2022-08-19T00:01:54;17.60;99.90
21635;DHT22;10979;48.306;9.830;2022-08-19T00:04:23;17.50;99.90
21635;DHT22;10979;48.306;9.830;2022-08-19T00:06:49;17.50;99.90
21635;DHT22;10979;48.306;9.830;2022-08-19T00:09:17;17.50;99.90
21635;DHT22;10979;48.306;9.830;2022-08-19T00:11:44;17.50;99.90
21635;DHT22;10979;48.306;9.830;2022-08-19T00:14:11;17.50;99.90
21635;DHT22;10979;48.306;9.830;2022-08-19T00:16:39;17.40;99.90
21635;DHT22;10979;48.306;9.830;2022-08-19T00:19:05;17.40;99.90
21635;DHT22;10979;48.306;9.830;2022-08-19T00:21:30;17.40;99.90
21635;DHT22;10979;48.306;9.830;2022-08-19T00:23:57;17.40;99.90
21635;DHT22;10979;48.306;9.830;2022-08-19T00:26:24;17.40;99.90
21635;DHT22;10979;48.306;9.830;2022-08-19T00:28:49;17.30;99.90
21635;DHT22;10979;48.306;9.830;2022-08-19T00:31:16;17.20;99.90
21635;DHT22;10979;48.306;9.830;2022-08-19T00:33:42;17.30;99.90
21635;DHT22;10979;48.306;9.830;2022-08-19T00:36:08;17.30;99.90
21635;DHT22;10979;48.306;9.830;2022-08-19T00:38:36;17.20;99.90
21635;DHT22;10979;48.306;9.830;2022-08-19T00:41:03;17.20;99.90
21635;DHT22;10979;48.306;9.830;2022-08-19T00:43:28;17.20;99.90
21635;DHT22;10979;48.306;9.830;2022-08-19T00:45:54;17.20;99.90
21635;DHT22;10979;48.306;9.830;2022-08-19T00:48:20;17.30;99.90
21635;DHT22;10979;48.306;9.830;2022-08-19T00:50:47;17.30;99.90
21635;DHT22;10979;48.306;9.830;2022-08-19T00:53:15;17.20;99.90
21635;DHT22;10979;48.306;9.830;2022-08-19T00:55:45;17.20;99.90
21635;DHT22;10979;48.306;9.830;2022-08-19T00:58:15;17.20;99.90
21635;DHT22;10979;48.306;9.830;2022-08-19T01:00:43;17.20;99.90
21635;DHT22;10979;48.306;9.830;2022-08-19T01:03:13;17.20;99.90
21635;DHT22;10979;48.306;9.830;2022-08-19T01:05:41;17.20;99.90
21635;DHT22;10979;48.306;9.830;2022-08-19T01:08:08;17.20;99.90
21635;DHT22;10979;48.306;9.830;2022-08-19T01:10:39;17.30;99.90
21635;DHT22;10979;48.306;9.830;2022-08-19T01:13:06;17.20;99.90
21635;DHT22;10979;48.306;9.830;2022-08-19T01:15:35;17.30;99.90
21635;DHT22;10979;48.306;9.830;2022-08-19T01:18:09;17.20;99.90
21635;DHT22;10979;48.306;9.830;2022-08-19T01:20:36;17.20;99.90
21635;DHT22;10979;48.306;9.830;2022-08-19T01:23:03;17.20;99.90
21635;DHT22;10979;48.306;9.830;2022-08-19T01:25:42;17.20;99.90
21635;DHT22;10979;48.306;9.830;2022-08-19T01:28:16;17.10;99.90
21635;DHT22;10979;48.306;9.830;2022-08-19T01:30:43;17.10;99.90
21635;DHT22;10979;48.306;9.830;2022-08-19T01:33:09;17.10;99.90
21635;DHT22;10979;48.306;9.830;2022-08-19T01:35:35;17.10;99.90
21635;DHT22;10979;48.306;9.830;2022-08-19T01:38:04;17.10;99.90
21635;DHT22;10979;48.306;9.830;2022-08-19T01:40:35;17.10;99.90
21635;DHT22;10979;48.306;9.830;2022-08-19T01:43:02;17.10;99.90
21635;DHT22;10979;48.306;9.830;2022-08-19T01:45:29;17.10;99.90
21635;DHT22;10979;48.306;9.830;2022-08-19T01:47:56;17.10;99.90
21635;DHT22;10979;48.306;9.830;2022-08-19T01:50:22;17.00;99.90
21635;DHT22;10979;48.306;9.830;2022-08-19T01:52:48;17.00;99.90
21635;DHT22;10979;48.306;9.830;2022-08-19T01:55:16;17.00;99.90
21635;DHT22;10979;48.306;9.830;2022-08-19T01:57:46;17.00;99.90
21635;DHT22;10979;48.306;9.830;2022-08-19T02:00:16;17.00;99.90
21635;DHT22;10979;48.306;9.830;2022-08-19T02:02:42;17.00;99.90
21635;DHT22;10979;48.306;9.830;2022-08-19T02:05:09;17.10;99.90
21635;DHT22;10979;48.306;9.830;2022-08-19T02:07:35;17.10;99.90
21635;DHT22;10979;48.306;9.830;2022-08-19T02:10:07;17.00;99.90
21635;DHT22;10979;48.306;9.830;2022-08-19T02:12:34;17.00;99.90
21635;DHT22;10979;48.306;9.830;2022-08-19T02:15:00;17.00;99.90
21635;DHT22;10979;48.306;9.830;2022-08-19T02:17:27;17.00;99.90
21635;DHT22;10979;48.306;9.830;2022-08-19T02:19:57;17.10;99.90
21635;DHT22;10979;48.306;9.830;2022-08-19T02:22:23;17.10;99.90
21635;DHT22;10979;48.306;9.830;2022-08-19T02:24:51;17.00;99.90
21635;DHT22;10979;48.306;9.830;2022-08-19T02:27:17;17.00;99.90
21635;DHT22;10979;48.306;9.830;2022-08-19T02:29:43;16.90;99.90
21635;DHT22;10979;48.306;9.830;2022-08-19T02:32:10;16.90;99.90
21635;DHT22;10979;48.306;9.830;2022-08-19T02:34:36;16.90;99.90
21635;DHT22;10979;48.306;9.830;2022-08-19T02:37:01;16.80;99.90
21635;DHT22;10979;48.306;9.830;2022-08-19T02:39:27;16.80;99.90
21635;DHT22;10979;48.306;9.830;2022-08-19T02:41:52;16.80;99.90
21635;DHT22;10979;48.306;9.830;2022-08-19T02:44:18;16.80;99.90
21635;DHT22;10979;48.306;9.830;2022-08-19T02:46:46;16.80;99.90
21635;DHT22;10979;48.306;9.830;2022-08-19T02:49:13;16.80;99.90
21635;DHT22;10979;48.306;9.830;2022-08-19T02:51:42;16.80;99.90
21635;DHT22;10979;48.306;9.830;2022-08-19T02:54:10;16.80;99.90
21635;DHT22;10979;48.306;9.830;2022-08-19T02:56:37;16.90;99.90
21635;DHT22;10979;48.306;9.830;2022-08-19T02:59:04;16.80;99.90
21635;DHT22;10979;48.306;9.830;2022-08-19T03:01:34;16.90;99.90
21635;DHT22;10979;48.306;9.830;2022-08-19T03:04:02;16.80;99.90
21635;DHT22;10979;48.306;9.830;2022-08-19T03:06:29;16.90;99.90
21635;DHT22;10979;48.306;9.830;2022-08-19T03:08:55;16.90;99.90
21635;DHT22;10979;48.306;9.830;2022-08-19T03:11:30;16.90;99.90
21635;DHT22;10979;48.306;9.830;2022-08-19T03:13:57;16.80;99.90
21635;DHT22;10979;48.306;9.830;2022-08-19T03:16:25;16.80;99.90
21635;DHT22;10979;48.306;9.830;2022-08-19T03:18:52;16.80;99.90
21635;DHT22;10979;48.306;9.830;2022-08-19T03:21:20;16.80;99.90
21635;DHT22;10979;48.306;9.830;2022-08-19T03:23:46;16.70;99.90
21635;DHT22;10979;48.306;9.830;2022-08-19T03:26:12;16.80;99.90
21635;DHT22;10979;48.306;9.830;2022-08-19T03:28:40;16.70;99.90
21635;DHT22;10979;48.306;9.830;2022-08-19T03:31:10;16.70;99.90
21635;DHT22;10979;48.306;9.830;2022-08-19T03:33:36;16.70;99.90
21635;DHT22;10979;48.306;9.830;2022-08-19T03:36:12;16.70;99.90
21635;DHT22;10979;48.306;9.830;2022-08-19T03:38:48;16.70;99.90
21635;DHT22;10979;48.306;9.830;2022-08-19T03:41:17;16.70;99.90
21635;DHT22;10979;48.306;9.830;2022-08-19T03:43:44;16.70;99.90
21635;DHT22;10979;48.306;9.830;2022-08-19T03:46:15;16.70;99.90
21635;DHT22;10979;48.306;9.830;2022-08-19T03:48:42;16.70;99.90
21635;DHT22;10979;48.306;9.830;2022-08-19T03:51:15;16.60;99.90
21635;DHT22;10979;48.306;9.830;2022-08-19T03:53:41;16.60;99.90
21635;DHT22;10979;48.306;9.830;2022-08-19T03:56:09;16.60;99.90
21635;DHT22;10979;48.306;9.830;2022-08-19T03:58:35;16.60;99.90
21635;DHT22;10979;48.306;9.830;2022-08-19T04:01:07;16.70;99.90
21635;DHT22;10979;48.306;9.830;2022-08-19T04:03:33;16.70;99.90
21635;DHT22;10979;48.306;9.830;2022-08-19T04:08:39;16.80;99.90
21635;DHT22;10979;48.306;9.830;2022-08-19T04:11:10;16.90;99.90
21635;DHT22;10979;48.306;9.830;2022-08-19T04:13:36;16.80;99.90
21635;DHT22;10979;48.306;9.830;2022-08-19T04:16:02;16.80;99.90
21635;DHT22;10979;48.306;9.830;2022-08-19T04:18:29;16.80;99.90
21635;DHT22;10979;48.306;9.830;2022-08-19T04:20:55;16.70;99.90
21635;DHT22;10979;48.306;9.830;2022-08-19T04:23:22;16.60;99.90
21635;DHT22;10979;48.306;9.830;2022-08-19T04:25:48;16.60;99.90
21635;DHT22;10979;48.306;9.830;2022-08-19T04:28:14;16.60;99.90
21635;DHT22;10979;48.306;9.830;2022-08-19T04:30:42;16.60;99.90
21635;DHT22;10979;48.306;9.830;2022-08-19T04:33:09;16.70;99.90
21635;DHT22;10979;48.306;9.830;2022-08-19T04:35:40;16.60;99.90
21635;DHT22;10979;48.306;9.830;2022-08-19T04:38:06;16.70;99.90
21635;DHT22;10979;48.306;9.830;2022-08-19T04:40:32;16.70;99.90
21635;DHT22;10979;48.306;9.830;2022-08-19T04:43:17;16.60;99.90
21635;DHT22;10979;48.306;9.830;2022-08-19T04:45:43;16.60;99.90
21635;DHT22;10979;48.306;9.830;2022-08-19T04:48:09;16.70;99.90
21635;DHT22;10979;48.306;9.830;2022-08-19T04:50:35;16.60;99.90
21635;DHT22;10979;48.306;9.830;2022-08-19T04:53:01;16.70;99.90
21635;DHT22;10979;48.306;9.830;2022-08-19T04:55:27;16.70;99.90
21635;DHT22;10979;48.306;9.830;2022-08-19T04:57:56;16.70;99.90
21635;DHT22;10979;48.306;9.830;2022-08-19T05:00:21;16.70;99.90
21635;DHT22;10979;48.306;9.830;2022-08-19T05:02:47;16.70;99.90
21635;DHT22;10979;48.306;9.830;2022-08-19T05:05:14;16.80;99.90
21635;DHT22;10979;48.306;9.830;2022-08-19T05:07:40;16.80;99.90
21635;DHT22;10979;48.306;9.830;2022-08-19T05:10:06;16.90;99.90
21635;DHT22;10979;48.306;9.830;2022-08-19T05:12:33;16.90;99.90
21635;DHT22;10979;48.306;9.830;2022-08-19T05:14:59;16.90;99.90
21635;DHT22;10979;48.306;9.830;2022-08-19T05:17:26;16.90;99.90
21635;DHT22;10979;48.306;9.830;2022-08-19T05:19:53;16.90;99.90
21635;DHT22;10979;48.306;9.830;2022-08-19T05:22:38;16.90;99.90
21635;DHT22;10979;48.306;9.830;2022-08-19T05:25:06;16.90;99.90
21635;DHT22;10979;48.306;9.830;2022-08-19T05:27:32;16.90;99.90
21635;DHT22;10979;48.306;9.830;2022-08-19T05:29:58;16.90;99.90
21635;DHT22;10979;48.306;9.830;2022-08-19T05:32:24;16.90;99.90
21635;DHT22;10979;48.306;9.830;2022-08-19T05:34:50;17.00;99.90
21635;DHT22;10979;48.306;9.830;2022-08-19T05:37:16;17.00;99.90
21635;DHT22;10979;48.306;9.830;2022-08-19T05:39:42;17.00;99.90
21635;DHT22;10979;48.306;9.830;2022-08-19T05:42:09;17.00;99.90
21635;DHT22;10979;48.306;9.830;2022-08-19T05:44:39;17.00;99.90
21635;DHT22;10979;48.306;9.830;2022-08-19T05:47:06;17.00;99.90
21635;DHT22;10979;48.306;9.830;2022-08-19T05:49:33;17.00;99.90
21635;DHT22;10979;48.306;9.830;2022-08-19T05:52:05;17.00;99.90
21635;DHT22;10979;48.306;9.830;2022-08-19T05:54:32;17.00;99.90
21635;DHT22;10979;48.306;9.830;2022-08-19T05:56:57;17.00;99.90
21635;DHT22;10979;48.306;9.830;2022-08-19T05:59:23;16.80;99.90
21635;DHT22;10979;48.306;9.830;2022-08-19T06:01:51;16.90;99.90
21635;DHT22;10979;48.306;9.830;2022-08-19T06:04:18;16.90;99.90
21635;DHT22;10979;48.306;9.830;2022-08-19T06:06:45;17.00;99.90
21635;DHT22;10979;48.306;9.830;2022-08-19T06:09:11;16.90;99.90
21635;DHT22;10979;48.306;9.830;2022-08-19T06:11:49;17.00;99.90
21635;DHT22;10979;48.306;9.830;2022-08-19T06:14:26;17.00;99.90
21635;DHT22;10979;48.306;9.830;2022-08-19T06:16:52;16.90;99.90
21635;DHT22;10979;48.306;9.830;2022-08-19T06:19:20;16.90;99.90
21635;DHT22;10979;48.306;9.830;2022-08-19T06:21:49;16.90;99.90
21635;DHT22;10979;48.306;9.830;2022-08-19T06:24:18;17.00;99.90
21635;DHT22;10979;48.306;9.830;2022-08-19T06:26:46;16.90;99.90
21635;DHT22;10979;48.306;9.830;2022-08-19T06:29:15;17.00;99.90
21635;DHT22;10979;48.306;9.830;2022-08-19T06:31:43;16.90;99.90
21635;DHT22;10979;48.306;9.830;2022-08-19T06:34:09;16.90;99.90
21635;DHT22;10979;48.306;9.830;2022-08-19T06:36:41;16.90;99.90
21635;DHT22;10979;48.306;9.830;2022-08-19T06:39:14;16.90;99.90
21635;DHT22;10979;48.306;9.830;2022-08-19T06:41:42;16.90;99.90
21635;DHT22;10979;48.306;9.830;2022-08-19T06:44:08;16.90;99.90
21635;DHT22;10979;48.306;9.830;2022-08-19T06:46:35;17.00;99.90
21635;DHT22;10979;48.306;9.830;2022-08-19T06:49:01;17.00;99.90
21635;DHT22;10979;48.306;9.830;2022-08-19T06:51:27;17.10;99.90
21635;DHT22;10979;48.306;9.830;2022-08-19T06:53:54;17.10;99.90
21635;DHT22;10979;48.306;9.830;2022-08-19T06:56:25;17.10;99.90
21635;DHT22;10979;48.306;9.830;2022-08-19T06:58:56;17.00;99.90
21635;DHT22;10979;48.306;9.830;2022-08-19T07:01:22;17.00;99.90
21635;DHT22;10979;48.306;9.830;2022-08-19T07:03:48;17.00;99.90
21635;DHT22;10979;48.306;9.830;2022-08-19T07:06:16;17.00;99.90
21635;DHT22;10979;48.306;9.830;2022-08-19T07:08:43;17.10;99.90
21635;DHT22;10979;48.306;9.830;2022-08-19T07:11:12;17.20;99.90
21635;DHT22;10979;48.306;9.830;2022-08-19T07:13:39;17.20;99.90
21635;DHT22;10979;48.306;9.830;2022-08-19T07:16:10;17.20;99.90
21635;DHT22;10979;48.306;9.830;2022-08-19T07:18:36;17.20;99.90
21635;DHT22;10979;48.306;9.830;2022-08-19T07:21:05;17.20;99.90
21635;DHT22;10979;48.306;9.830;2022-08-19T07:23:31;17.20;99.90
21635;DHT22;10979;48.306;9.830;2022-08-19T07:25:57;17.30;99.90
21635;DHT22;10979;48.306;9.830;2022-08-19T07:28:22;17.20;99.90
21635;DHT22;10979;48.306;9.830;2022-08-19T07:30:48;17.30;99.90
21635;DHT22;10979;48.306;9.830;2022-08-19T07:33:15;17.30;99.90
21635;DHT22;10979;48.306;9.830;2022-08-19T07:35:41;17.30;99.90
21635;DHT22;10979;48.306;9.830;2022-08-19T07:38:07;17.30;99.90
21635;DHT22;10979;48.306;9.830;2022-08-19T07:40:33;17.20;99.90
21635;DHT22;10979;48.306;9.830;2022-08-19T07:42:58;17.20;99.90
21635;DHT22;10979;48.306;9.830;2022-08-19T07:45:24;17.30;99.90
21635;DHT22;10979;48.306;9.830;2022-08-19T07:47:50;17.30;99.90
21635;DHT22;10979;48.306;9.830;2022-08-19T07:50:16;17.30;99.90
21635;DHT22;10979;48.306;9.830;2022-08-19T07:52:43;17.20;99.90
21635;DHT22;10979;48.306;9.830;2022-08-19T07:55:10;17.30;99.90
21635;DHT22;10979;48.306;9.830;2022-08-19T07:57:35;17.30;99.90
21635;DHT22;10979;48.306;9.830;2022-08-19T08:00:02;17.30;99.90
21635;DHT22;10979;48.306;9.830;2022-08-19T08:02:28;17.30;99.90
21635;DHT22;10979;48.306;9.830;2022-08-19T08:04:54;17.30;99.90
21635;DHT22;10979;48.306;9.830;2022-08-19T08:07:38;17.20;99.90
21635;DHT22;10979;48.306;9.830;2022-08-19T08:10:22;17.30;99.90
21635;DHT22;10979;48.306;9.830;2022-08-19T08:12:47;17.30;99.90
21635;DHT22;10979;48.306;9.830;2022-08-19T08:15:15;17.30;99.90
21635;DHT22;10979;48.306;9.830;2022-08-19T08:17:44;17.30;99.90
21635;DHT22;10979;48.306;9.830;2022-08-19T08:20:11;17.40;99.90
21635;DHT22;10979;48.306;9.830;2022-08-19T08:22:37;17.40;99.90
21635;DHT22;10979;48.306;9.830;2022-08-19T08:25:23;17.50;99.90
21635;DHT22;10979;48.306;9.830;2022-08-19T08:27:49;17.60;99.90
21635;DHT22;10979;48.306;9.830;2022-08-19T08:30:25;17.60;99.90
21635;DHT22;10979;48.306;9.830;2022-08-19T08:32:51;17.60;99.90
21635;DHT22;10979;48.306;9.830;2022-08-19T08:35:20;17.60;99.90
21635;DHT22;10979;48.306;9.830;2022-08-19T08:37:47;17.50;99.90
21635;DHT22;10979;48.306;9.830;2022-08-19T08:43:30;17.60;99.90
21635;DHT22;10979;48.306;9.830;2022-08-19T08:46:10;17.50;99.90
21635;DHT22;10979;48.306;9.830;2022-08-19T08:48:46;17.60;99.90
21635;DHT22;10979;48.306;9.830;2022-08-19T08:51:22;17.60;99.90
21635;DHT22;10979;48.306;9.830;2022-08-19T08:53:50;17.50;99.90
21635;DHT22;10979;48.306;9.830;2022-08-19T08:56:16;17.50;99.90
21635;DHT22;10979;48.306;9.830;2022-08-19T08:58:50;17.60;99.90
21635;DHT22;10979;48.306;9.830;2022-08-19T09:01:17;17.50;99.90
21635;DHT22;10979;48.306;9.830;2022-08-19T09:03:43;17.60;99.90
21635;DHT22;10979;48.306;9.830;2022-08-19T09:08:58;17.50;99.90
21635;DHT22;10979;48.306;9.830;2022-08-19T09:11:40;17.40;99.90
21635;DHT22;10979;48.306;9.830;2022-08-19T09:16:44;17.50;99.90
21635;DHT22;10979;48.306;9.830;2022-08-19T09:19:10;17.50;99.90
21635;DHT22;10979;48.306;9.830;2022-08-19T09:21:36;17.50;99.90
21635;DHT22;10979;48.306;9.830;2022-08-19T09:24:02;17.40;99.90
21635;DHT22;10979;48.306;9.830;2022-08-19T09:26:31;17.40;99.90
21635;DHT22;10979;48.306;9.830;2022-08-19T09:28:58;17.40;99.90
21635;DHT22;10979;48.306;9.830;2022-08-19T09:31:27;17.40;99.90
21635;DHT22;10979;48.306;9.830;2022-08-19T09:33:53;17.40;99.90
21635;DHT22;10979;48.306;9.830;2022-08-19T09:36:23;17.40;99.90
21635;DHT22;10979;48.306;9.830;2022-08-19T09:38:50;17.40;99.90
21635;DHT22;10979;48.306;9.830;2022-08-19T09:41:19;17.50;99.90
21635;DHT22;10979;48.306;9.830;2022-08-19T09:43:47;17.50;99.90
21635;DHT22;10979;48.306;9.830;2022-08-19T09:46:13;17.50;99.90
21635;DHT22;10979;48.306;9.830;2022-08-19T09:48:40;17.60;99.90
21635;DHT22;10979;48.306;9.830;2022-08-19T09:51:10;17.50;99.90
21635;DHT22;10979;48.306;9.830;2022-08-19T09:53:37;17.70;99.90
21635;DHT22;10979;48.306;9.830;2022-08-19T09:56:04;17.70;99.90
21635;DHT22;10979;48.306;9.830;2022-08-19T09:58:31;17.70;99.90
21635;DHT22;10979;48.306;9.830;2022-08-19T10:00:58;17.80;99.90
21635;DHT22;10979;48.306;9.830;2022-08-19T10:03:25;17.90;99.90
21635;DHT22;10979;48.306;9.830;2022-08-19T10:05:52;17.80;99.90
21635;DHT22;10979;48.306;9.830;2022-08-19T10:08:30;17.80;99.90
21635;DHT22;10979;48.306;9.830;2022-08-19T10:10:56;17.70;99.90
21635;DHT22;10979;48.306;9.830;2022-08-19T10:13:25;17.70;99.90
21635;DHT22;10979;48.306;9.830;2022-08-19T10:15:56;17.70;99.90
21635;DHT22;10979;48.306;9.830;2022-08-19T10:18:23;17.80;99.90
21635;DHT22;10979;48.306;9.830;2022-08-19T10:20:50;17.70;99.90
21635;DHT22;10979;48.306;9.830;2022-08-19T10:23:19;17.70;99.90
21635;DHT22;10979;48.306;9.830;2022-08-19T10:25:45;17.60;99.90
21635;DHT22;10979;48.306;9.830;2022-08-19T10:28:11;17.70;99.90
21635;DHT22;10979;48.306;9.830;2022-08-19T10:30:40;17.70;99.90
21635;DHT22;10979;48.306;9.830;2022-08-19T10:33:07;17.70;99.90
21635;DHT22;10979;48.306;9.830;2022-08-19T10:35:33;17.60;99.90
21635;DHT22;10979;48.306;9.830;2022-08-19T10:37:58;17.70;99.90
21635;DHT22;10979;48.306;9.830;2022-08-19T10:40:26;17.60;99.90
21635;DHT22;10979;48.306;9.830;2022-08-19T10:42:52;17.50;99.90
21635;DHT22;10979;48.306;9.830;2022-08-19T10:45:18;17.70;99.90
21635;DHT22;10979;48.306;9.830;2022-08-19T10:47:44;17.70;99.90
21635;DHT22;10979;48.306;9.830;2022-08-19T10:50:10;17.70;99.90
21635;DHT22;10979;48.306;9.830;2022-08-19T10:52:54;17.80;99.90
21635;DHT22;10979;48.306;9.830;2022-08-19T10:55:22;17.80;99.90
21635;DHT22;10979;48.306;9.830;2022-08-19T10:58:11;17.80;99.90
21635;DHT22;10979;48.306;9.830;2022-08-19T11:00:37;17.70;99.90
21635;DHT22;10979;48.306;9.830;2022-08-19T11:03:03;17.60;99.90
21635;DHT22;10979;48.306;9.830;2022-08-19T11:05:28;17.60;99.90
21635;DHT22;10979;48.306;9.830;2022-08-19T11:07:54;17.60;99.90
21635;DHT22;10979;48.306;9.830;2022-08-19T11:10:19;17.40;99.90
21635;DHT22;10979;48.306;9.830;2022-08-19T11:12:45;17.40;99.90
21635;DHT22;10979;48.306;9.830;2022-08-19T11:15:12;17.40;99.90
21635;DHT22;10979;48.306;9.830;2022-08-19T11:17:38;17.40;99.90
21635;DHT22;10979;48.306;9.830;2022-08-19T11:20:10;17.40;99.90
21635;DHT22;10979;48.306;9.830;2022-08-19T11:22:36;17.50;99.90
21635;DHT22;10979;48.306;9.830;2022-08-19T11:25:01;17.40;99.90
21635;DHT22;10979;48.306;9.830;2022-08-19T11:27:27;17.50;99.90
21635;DHT22;10979;48.306;9.830;2022-08-19T11:29:58;17.40;99.90
21635;DHT22;10979;48.306;9.830;2022-08-19T11:32:23;17.50;99.90
21635;DHT22;10979;48.306;9.830;2022-08-19T11:34:49;17.50;99.90
21635;DHT22;10979;48.306;9.830;2022-08-19T11:37:15;17.50;99.90
21635;DHT22;10979;48.306;9.830;2022-08-19T11:39:41;17.50;99.90
21635;DHT22;10979;48.306;9.830;2022-08-19T11:42:07;17.50;99.90
21635;DHT22;10979;48.306;9.830;2022-08-19T11:44:53;17.50;99.90
21635;DHT22;10979;48.306;9.830;2022-08-19T11:47:19;17.50;99.90
21635;DHT22;10979;48.306;9.830;2022-08-19T11:49:46;17.40;99.90
21635;DHT22;10979;48.306;9.830;2022-08-19T11:52:12;17.50;99.90
21635;DHT22;10979;48.306;9.830;2022-08-19T11:54:37;17.50;99.90
21635;DHT22;10979;48.306;9.830;2022-08-19T11:57:03;17.50;99.90
21635;DHT22;10979;48.306;9.830;2022-08-19T11:59:29;17.40;99.90
21635;DHT22;10979;48.306;9.830;2022-08-19T12:01:55;17.40;99.90
21635;DHT22;10979;48.306;9.830;2022-08-19T12:04:22;17.40;99.90
21635;DHT22;10979;48.306;9.830;2022-08-19T12:06:48;17.50;99.90
21635;DHT22;10979;48.306;9.830;2022-08-19T12:09:15;17.40;99.90
21635;DHT22;10979;48.306;9.830;2022-08-19T12:11:41;17.40;99.90
21635;DHT22;10979;48.306;9.830;2022-08-19T12:14:10;17.40;99.90
21635;DHT22;10979;48.306;9.830;2022-08-19T12:16:37;17.40;99.90
21635;DHT22;10979;48.306;9.830;2022-08-19T12:19:04;17.50;99.90
21635;DHT22;10979;48.306;9.830;2022-08-19T12:21:32;17.60;99.90
21635;DHT22;10979;48.306;9.830;2022-08-19T12:23:59;17.70;99.90
21635;DHT22;10979;48.306;9.830;2022-08-19T12:26:25;17.70;99.90
21635;DHT22;10979;48.306;9.830;2022-08-19T12:28:52;17.60;99.90
21635;DHT22;10979;48.306;9.830;2022-08-19T12:31:18;17.70;99.90
21635;DHT22;10979;48.306;9.830;2022-08-19T12:33:45;17.70;99.90
21635;DHT22;10979;48.306;9.830;2022-08-19T12:36:13;17.80;99.90
21635;DHT22;10979;48.306;9.830;2022-08-19T12:38:39;17.80;99.90
21635;DHT22;10979;48.306;9.830;2022-08-19T12:41:06;17.80;99.90
21635;DHT22;10979;48.306;9.830;2022-08-19T12:43:34;18.00;99.90
21635;DHT22;10979;48.306;9.830;2022-08-19T12:46:00;18.10;99.90
21635;DHT22;10979;48.306;9.830;2022-08-19T12:48:26;18.20;99.90
21635;DHT22;10979;48.306;9.830;2022-08-19T12:50:52;18.30;99.90
21635;DHT22;10979;48.306;9.830;2022-08-19T12:53:18;18.30;99.90
21635;DHT22;10979;48.306;9.830;2022-08-19T12:55:43;18.30;99.90
21635;DHT22;10979;48.306;9.830;2022-08-19T12:58:09;18.40;99.90
21635;DHT22;10979;48.306;9.830;2022-08-19T13:00:35;18.40;99.90
21635;DHT22;10979;48.306;9.830;2022-08-19T13:03:01;18.30;99.90
21635;DHT22;10979;48.306;9.830;2022-08-19T13:05:29;18.30;99.90
21635;DHT22;10979;48.306;9.830;2022-08-19T13:07:57;18.20;99.90
21635;DHT22;10979;48.306;9.830;2022-08-19T13:10:27;18.10;99.90
21635;DHT22;10979;48.306;9.830;2022-08-19T13:12:53;18.00;99.90
21635;DHT22;10979;48.306;9.830;2022-08-19T13:15:20;17.90;99.90
21635;DHT22;10979;48.306;9.830;2022-08-19T13:17:51;17.90;99.90
21635;DHT22;10979;48.306;9.830;2022-08-19T13:20:20;17.90;99.90
21635;DHT22;10979;48.306;9.830;2022-08-19T13:22:46;18.00;99.90
21635;DHT22;10979;48.306;9.830;2022-08-19T13:25:13;18.00;99.90
21635;DHT22;10979;48.306;9.830;2022-08-19T13:27:41;18.00;99.90
21635;DHT22;10979;48.306;9.830;2022-08-19T13:30:10;18.10;99.90
21635;DHT22;10979;48.306;9.830;2022-08-19T13:32:54;18.10;99.90
21635;DHT22;10979;48.306;9.830;2022-08-19T13:38:09;18.00;99.90
21635;DHT22;10979;48.306;9.830;2022-08-19T13:40:36;18.00;99.90
21635;DHT22;10979;48.306;9.830;2022-08-19T13:43:03;17.80;99.90
21635;DHT22;10979;48.306;9.830;2022-08-19T13:45:31;17.80;99.90
21635;DHT22;10979;48.306;9.830;2022-08-19T13:47:59;17.80;99.90
21635;DHT22;10979;48.306;9.830;2022-08-19T13:50:30;17.70;99.90
21635;DHT22;10979;48.306;9.830;2022-08-19T13:52:57;17.70;99.90
21635;DHT22;10979;48.306;9.830;2022-08-19T13:55:23;17.70;99.90
21635;DHT22;10979;48.306;9.830;2022-08-19T13:57:53;17.60;99.90
21635;DHT22;10979;48.306;9.830;2022-08-19T14:00:21;17.60;99.90
21635;DHT22;10979;48.306;9.830;2022-08-19T14:02:52;17.70;99.90
21635;DHT22;10979;48.306;9.830;2022-08-19T14:05:19;17.60;99.90
21635;DHT22;10979;48.306;9.830;2022-08-19T14:07:45;17.60;99.90
21635;DHT22;10979;48.306;9.830;2022-08-19T14:10:12;17.60;99.90
21635;DHT22;10979;48.306;9.830;2022-08-19T14:12:38;17.60;99.90
21635;DHT22;10979;48.306;9.830;2022-08-19T14:15:06;17.70;99.90
21635;DHT22;10979;48.306;9.830;2022-08-19T14:17:32;17.80;99.90
21635;DHT22;10979;48.306;9.830;2022-08-19T14:20:01;17.80;99.90
21635;DHT22;10979;48.306;9.830;2022-08-19T14:22:30;17.70;99.90
21635;DHT22;10979;48.306;9.830;2022-08-19T14:24:59;17.70;99.90
21635;DHT22;10979;48.306;9.830;2022-08-19T14:27:24;17.70;99.90
21635;DHT22;10979;48.306;9.830;2022-08-19T14:29:51;17.70;99.90
21635;DHT22;10979;48.306;9.830;2022-08-19T14:32:17;17.80;99.90
21635;DHT22;10979;48.306;9.830;2022-08-19T14:34:42;17.80;99.90
21635;DHT22;10979;48.306;9.830;2022-08-19T14:37:12;17.80;99.90
21635;DHT22;10979;48.306;9.830;2022-08-19T14:39:42;17.80;99.90
21635;DHT22;10979;48.306;9.830;2022-08-19T14:42:09;17.70;99.90
21635;DHT22;10979;48.306;9.830;2022-08-19T14:44:35;17.70;99.90
21635;DHT22;10979;48.306;9.830;2022-08-19T14:47:00;17.70;99.90
21635;DHT22;10979;48.306;9.830;2022-08-19T14:49:26;17.60;99.90
21635;DHT22;10979;48.306;9.830;2022-08-19T14:51:52;17.70;99.90
21635;DHT22;10979;48.306;9.830;2022-08-19T14:54:17;17.70;99.90
21635;DHT22;10979;48.306;9.830;2022-08-19T14:56:44;17.60;99.90
21635;DHT22;10979;48.306;9.830;2022-08-19T14:59:09;17.70;99.90
21635;DHT22;10979;48.306;9.830;2022-08-19T15:01:35;17.80;99.90
21635;DHT22;10979;48.306;9.830;2022-08-19T15:04:01;17.80;99.90
21635;DHT22;10979;48.306;9.830;2022-08-19T15:06:28;17.70;99.90
21635;DHT22;10979;48.306;9.830;2022-08-19T15:08:54;17.70;99.90
21635;DHT22;10979;48.306;9.830;2022-08-19T15:11:22;17.70;99.90
21635;DHT22;10979;48.306;9.830;2022-08-19T15:13:49;17.70;99.90
21635;DHT22;10979;48.306;9.830;2022-08-19T15:16:15;17.70;99.90
21635;DHT22;10979;48.306;9.830;2022-08-19T15:18:42;17.60;99.90
21635;DHT22;10979;48.306;9.830;2022-08-19T15:21:11;17.70;99.90
21635;DHT22;10979;48.306;9.830;2022-08-19T15:23:38;17.60;99.90
21635;DHT22;10979;48.306;9.830;2022-08-19T15:26:04;17.50;99.90
21635;DHT22;10979;48.306;9.830;2022-08-19T15:28:32;17.60;99.90
21635;DHT22;10979;48.306;9.830;2022-08-19T15:30:58;17.60;99.90
21635;DHT22;10979;48.306;9.830;2022-08-19T15:33:24;17.70;99.90
21635;DHT22;10979;48.306;9.830;2022-08-19T15:35:50;17.80;99.90
21635;DHT22;10979;48.306;9.830;2022-08-19T15:38:17;17.80;99.90
21635;DHT22;10979;48.306;9.830;2022-08-19T15:40:46;17.80;99.90
21635;DHT22;10979;48.306;9.830;2022-08-19T15:43:13;17.80;99.90
21635;DHT22;10979;48.306;9.830;2022-08-19T15:45:40;17.80;99.90
21635;DHT22;10979;48.306;9.830;2022-08-19T15:48:06;17.80;99.90